createdAt,value
2018-09-05T00:02:09.420Z,96.00
2018-09-05T00:04:36.605Z,96.10
2018-09-05T00:07:03.973Z,96.25
2018-09-05T00:09:31.276Z,96.28
2018-09-05T00:11:58.555Z,96.48
2018-09-05T00:14:25.806Z,96.74
2018-09-05T00:17:03.046Z,95.77
2018-09-05T00:19:30.554Z,95.81
2018-09-05T00:21:57.853Z,94.89
2018-09-05T00:24:25.033Z,94.12
2018-09-05T00:26:52.263Z,95.33
2018-09-05T00:29:19.513Z,95.75
2018-09-05T00:31:46.830Z,94.88
2018-09-05T00:34:14.033Z,95.52
2018-09-05T00:36:41.293Z,94.98
2018-09-05T00:39:09.759Z,96.13
2018-09-05T00:41:37.351Z,96.38
2018-09-05T00:44:04.720Z,97.40
2018-09-05T00:46:32.267Z,97.98
2018-09-05T00:48:59.922Z,98.17
2018-09-05T00:51:27.136Z,98.01
2018-09-05T00:53:54.597Z,97.10
2018-09-05T00:56:21.925Z,96.34
2018-09-05T00:58:49.135Z,95.01
2018-09-05T01:01:16.270Z,94.57
2018-09-05T01:03:43.500Z,94.78
2018-09-05T01:06:11.186Z,95.61
2018-09-05T01:08:39.164Z,96.25
2018-09-05T01:11:06.437Z,95.56
2018-09-05T01:13:33.635Z,96.54
2018-09-05T01:16:00.885Z,96.50
2018-09-05T01:18:28.198Z,97.41
2018-09-05T01:20:55.549Z,97.19
2018-09-05T01:23:22.758Z,97.08
2018-09-05T01:25:50.003Z,97.01
2018-09-05T01:28:17.319Z,97.30
2018-09-05T01:30:44.532Z,96.45
2018-09-05T01:33:11.849Z,95.46
2018-09-05T01:35:39.330Z,94.94
2018-09-05T01:38:06.540Z,95.82
2018-09-05T01:40:33.822Z,96.57
2018-09-05T01:43:01.133Z,98.43
2018-09-05T01:45:28.453Z,97.62
2018-09-05T01:47:55.679Z,96.59
2018-09-05T01:50:28.437Z,97.50
2018-09-05T01:52:55.665Z,97.81
2018-09-05T01:55:22.957Z,97.85
2018-09-05T01:57:50.265Z,97.31
2018-09-05T02:00:23.171Z,97.10
2018-09-05T02:02:50.453Z,97.20
2018-09-05T02:05:17.692Z,96.69
2018-09-05T02:07:44.951Z,96.09
2018-09-05T02:10:12.212Z,96.37
2018-09-05T02:12:39.818Z,96.39
2018-09-05T02:15:07.118Z,97.28
2018-09-05T02:17:34.296Z,97.84
2018-09-05T02:20:07.754Z,97.37
2018-09-05T02:22:35.120Z,97.34
2018-09-05T02:25:02.346Z,96.84
2018-09-05T02:27:29.595Z,97.46
2018-09-05T02:29:56.839Z,97.47
2018-09-05T02:32:24.056Z,96.93
2018-09-05T02:34:51.356Z,97.11
2018-09-05T02:37:18.826Z,98.16
2018-09-05T02:39:45.958Z,97.71
2018-09-05T02:42:13.121Z,97.54
2018-09-05T02:44:40.699Z,97.16
2018-09-05T02:47:08.196Z,97.23
2018-09-05T02:49:35.421Z,97.50
2018-09-05T02:52:02.605Z,97.58
2018-09-05T02:54:29.768Z,97.85
2018-09-05T02:56:57.020Z,97.85
2018-09-05T02:59:24.303Z,97.16
2018-09-05T03:01:51.487Z,96.61
2018-09-05T03:04:18.708Z,96.76
2018-09-05T03:06:45.869Z,97.18
2018-09-05T03:09:13.069Z,98.03
2018-09-05T03:11:40.899Z,98.73
2018-09-05T03:14:08.097Z,98.89
2018-09-05T03:16:35.317Z,99.21
2018-09-05T03:19:04.111Z,99.54
2018-09-05T03:21:29.916Z,100.00
2018-09-05T03:23:57.188Z,99.97
2018-09-05T03:26:24.408Z,100.00
2018-09-05T03:28:51.592Z,100.00
2018-09-05T03:31:18.753Z,100.00
2018-09-05T03:33:46.084Z,100.00
2018-09-05T03:36:13.403Z,100.00
2018-09-05T03:38:41.701Z,100.00
2018-09-05T03:41:09.099Z,100.00
2018-09-05T03:43:36.269Z,100.00
2018-09-05T03:46:03.491Z,100.00
2018-09-05T03:48:30.777Z,100.00
2018-09-05T03:50:58.232Z,100.00
2018-09-05T03:53:26.447Z,100.00
2018-09-05T03:55:54.456Z,100.00
2018-09-05T03:58:21.740Z,100.00
2018-09-05T04:00:49.039Z,100.00
2018-09-05T04:03:16.232Z,100.00
2018-09-05T04:05:43.340Z,100.00
2018-09-05T04:08:11.177Z,100.00
2018-09-05T04:10:38.851Z,100.00
2018-09-05T04:13:06.144Z,100.00
2018-09-05T04:15:33.303Z,100.00
2018-09-05T04:18:00.518Z,100.00
2018-09-05T04:20:27.710Z,100.00
2018-09-05T04:22:54.937Z,100.00
2018-09-05T04:25:22.300Z,100.00
2018-09-05T04:27:49.481Z,100.00
2018-09-05T04:30:16.695Z,100.00
2018-09-05T04:32:43.887Z,100.00
2018-09-05T04:35:11.326Z,100.00
2018-09-05T04:37:38.913Z,100.00
2018-09-05T04:40:06.288Z,100.00
2018-09-05T04:42:35.533Z,100.00
2018-09-05T04:45:02.870Z,100.00
2018-09-05T04:47:30.163Z,100.00
2018-09-05T04:49:57.546Z,100.00
2018-09-05T04:52:24.784Z,100.00
2018-09-05T04:54:52.037Z,100.00
2018-09-05T04:57:19.179Z,100.00
2018-09-05T04:59:46.364Z,100.00
2018-09-05T05:02:13.723Z,100.00
2018-09-05T05:04:41.060Z,100.00
2018-09-05T05:07:08.167Z,100.00
2018-09-05T05:09:35.589Z,100.00
2018-09-05T05:12:02.808Z,100.00
2018-09-05T05:14:30.034Z,100.00
2018-09-05T05:16:57.497Z,100.00
2018-09-05T05:19:24.701Z,100.00
2018-09-05T05:21:58.633Z,100.00
2018-09-05T05:24:25.881Z,100.00
2018-09-05T05:26:53.220Z,100.00
2018-09-05T05:29:20.440Z,100.00
2018-09-05T05:31:47.808Z,100.00
2018-09-05T05:34:15.422Z,100.00
2018-09-05T05:36:42.691Z,100.00
2018-09-05T05:39:11.449Z,100.00
2018-09-05T05:41:39.255Z,100.00
2018-09-05T05:44:06.525Z,100.00
2018-09-05T05:46:34.013Z,100.00
2018-09-05T05:49:01.292Z,100.00
2018-09-05T05:51:28.730Z,100.00
2018-09-05T05:53:55.944Z,100.00
2018-09-05T05:56:23.107Z,100.00
2018-09-05T05:58:50.314Z,100.00
2018-09-05T06:01:18.813Z,99.75
2018-09-05T06:03:46.040Z,99.48
2018-09-05T06:06:13.346Z,99.98
2018-09-05T06:08:40.672Z,100.00
2018-09-05T06:11:08.183Z,100.00
2018-09-05T06:13:35.450Z,99.32
2018-09-05T06:16:02.943Z,98.04
2018-09-05T06:18:30.124Z,97.09
2018-09-05T06:20:57.379Z,99.01
2018-09-05T06:23:24.546Z,98.15
2018-09-05T06:25:51.876Z,98.78
2018-09-05T06:28:19.363Z,98.98
2018-09-05T06:30:46.635Z,98.55
2018-09-05T06:33:13.706Z,98.44
2018-09-05T06:35:41.047Z,98.81
2018-09-05T06:38:09.081Z,97.87
2018-09-05T06:40:36.392Z,98.68
2018-09-05T06:43:03.644Z,98.18
2018-09-05T06:45:30.942Z,96.32
2018-09-05T06:47:58.298Z,95.78
2018-09-05T06:50:25.637Z,95.58
2018-09-05T06:52:53.036Z,95.83
2018-09-05T06:55:20.204Z,94.56
2018-09-05T06:57:47.649Z,94.76
2018-09-05T07:00:16.839Z,94.91
2018-09-05T07:02:44.059Z,94.55
2018-09-05T07:05:50.808Z,93.53
2018-09-05T07:08:18.004Z,93.64
2018-09-05T07:10:45.208Z,92.70
2018-09-05T07:13:12.420Z,92.76
2018-09-05T07:15:39.735Z,90.60
2018-09-05T07:18:06.974Z,89.10
2018-09-05T07:20:34.414Z,92.01
2018-09-05T07:23:01.504Z,90.53
2018-09-05T07:25:28.709Z,89.43
2018-09-05T07:27:56.027Z,89.36
2018-09-05T07:30:23.289Z,89.44
2018-09-05T07:32:50.605Z,89.12
2018-09-05T07:35:17.936Z,89.92
2018-09-05T07:37:45.131Z,88.99
2018-09-05T07:40:12.272Z,88.84
2018-09-05T07:42:41.761Z,87.01
2018-09-05T07:45:09.073Z,86.73
2018-09-05T07:47:36.659Z,85.29
2018-09-05T07:50:03.944Z,85.55
2018-09-05T07:52:31.408Z,85.73
2018-09-05T07:54:58.961Z,84.75
2018-09-05T07:57:27.585Z,82.25
2018-09-05T07:59:54.809Z,79.70
2018-09-05T08:02:22.581Z,78.87
2018-09-05T08:04:49.846Z,81.26
2018-09-05T08:07:17.313Z,81.35
2018-09-05T08:09:44.509Z,80.74
2018-09-05T08:12:12.021Z,81.94
2018-09-05T08:14:39.758Z,82.05
2018-09-05T08:17:07.129Z,82.30
2018-09-05T08:19:34.562Z,83.83
2018-09-05T08:22:01.765Z,83.98
2018-09-05T08:24:29.583Z,81.01
2018-09-05T08:26:57.216Z,79.79
2018-09-05T08:29:24.391Z,80.35
2018-09-05T08:31:51.689Z,78.47
2018-09-05T08:34:19.305Z,76.12
2018-09-05T08:36:46.780Z,75.43
2018-09-05T08:39:35.156Z,73.85
2018-09-05T08:42:02.703Z,71.05
2018-09-05T08:44:30.030Z,69.33
2018-09-05T08:46:57.322Z,70.44
2018-09-05T08:49:24.584Z,70.02
2018-09-05T08:51:51.752Z,69.32
2018-09-05T08:54:19.055Z,72.71
2018-09-05T08:56:46.212Z,65.66
2018-09-05T08:59:13.432Z,64.73
2018-09-05T09:01:42.174Z,64.41
2018-09-05T09:04:09.923Z,64.26
2018-09-05T09:06:37.323Z,65.98
2018-09-05T09:09:07.423Z,66.46
2018-09-05T09:11:34.644Z,66.58
2018-09-05T09:14:02.033Z,63.49
2018-09-05T09:16:29.535Z,61.89
2018-09-05T09:18:56.862Z,64.13
2018-09-05T09:21:23.972Z,59.97
2018-09-05T09:23:51.137Z,61.44
2018-09-05T09:26:18.367Z,61.29
2018-09-05T09:31:11.335Z,58.05
2018-09-05T09:33:38.440Z,58.22
2018-09-05T09:36:05.595Z,56.55
2018-09-05T09:38:32.873Z,54.21
2018-09-05T09:40:59.995Z,55.64
2018-09-05T09:43:27.274Z,55.27
2018-09-05T09:45:54.527Z,54.02
2018-09-05T09:48:21.644Z,54.13
2018-09-05T09:50:48.793Z,52.51
2018-09-05T09:53:15.948Z,53.21
2018-09-05T09:55:43.044Z,55.71
2018-09-05T09:58:10.148Z,56.39
2018-09-05T10:01:45.373Z,57.89
2018-09-05T10:04:18.155Z,56.76
2018-09-05T10:06:49.929Z,53.78
2018-09-05T10:09:23.040Z,49.71
2018-09-05T10:11:55.917Z,48.56
2018-09-05T10:14:28.768Z,47.44
2018-09-05T10:17:01.683Z,46.24
2018-09-05T10:19:28.799Z,45.79
2018-09-05T10:21:56.603Z,46.56
2018-09-05T10:24:24.065Z,44.47
2018-09-05T10:26:52.090Z,43.03
2018-09-05T10:29:19.493Z,42.52
2018-09-05T10:31:47.319Z,43.72
2018-09-05T10:34:14.424Z,44.19
2018-09-05T10:36:42.384Z,41.41
2018-09-05T10:39:10.633Z,40.14
2018-09-05T10:41:37.879Z,40.92
2018-09-05T10:44:05.113Z,42.69
2018-09-05T10:46:32.400Z,43.16
2018-09-05T10:48:59.500Z,42.12
2018-09-05T10:51:32.303Z,43.05
2018-09-05T10:53:59.451Z,40.51
2018-09-05T10:56:28.888Z,39.99
2018-09-05T10:58:56.137Z,38.50
2018-09-05T11:01:23.283Z,42.08
2018-09-05T11:03:50.390Z,42.14
2018-09-05T11:06:17.548Z,41.06
2018-09-05T11:08:44.887Z,40.27
2018-09-05T11:11:12.081Z,38.42
2018-09-05T11:13:39.314Z,38.56
2018-09-05T11:16:06.460Z,36.32
2018-09-05T11:18:33.641Z,36.29
2018-09-05T11:21:01.056Z,37.74
2018-09-05T11:23:30.034Z,35.93
2018-09-05T11:25:57.163Z,36.74
2018-09-05T11:28:24.388Z,36.34
2018-09-05T11:30:51.520Z,37.23
2018-09-05T11:33:18.619Z,36.42
2018-09-05T11:35:45.772Z,37.91
2018-09-05T11:38:12.867Z,37.50
2018-09-05T11:40:40.137Z,36.95
2018-09-05T11:43:07.371Z,35.40
2018-09-05T11:45:34.511Z,37.06
2018-09-05T11:48:01.687Z,36.04
2018-09-05T11:50:28.841Z,38.27
2018-09-05T11:52:55.936Z,35.32
2018-09-05T11:55:23.080Z,35.89
2018-09-05T11:57:50.500Z,34.78
2018-09-05T12:00:17.628Z,34.26
2018-09-05T12:02:44.756Z,36.78
2018-09-05T12:05:11.925Z,36.74
2018-09-05T12:07:39.031Z,37.52
2018-09-05T12:10:06.235Z,38.95
2018-09-05T12:12:33.509Z,37.44
2018-09-05T12:15:00.667Z,37.52
2018-09-05T12:17:28.355Z,38.95
2018-09-05T12:19:55.732Z,39.76
2018-09-05T12:22:22.944Z,40.80
2018-09-05T12:24:50.089Z,41.95
2018-09-05T12:27:17.268Z,40.90
2018-09-05T12:29:44.373Z,41.22
2018-09-05T12:32:11.519Z,39.45
2018-09-05T12:34:38.752Z,41.04
2018-09-05T12:37:05.881Z,41.54
2018-09-05T12:39:33.026Z,43.10
2018-09-05T12:42:00.197Z,43.89
2018-09-05T12:44:27.316Z,43.47
2018-09-05T12:46:54.513Z,43.86
2018-09-05T12:49:21.684Z,45.16
2018-09-05T12:51:48.804Z,46.19
2018-09-05T12:54:15.935Z,44.38
2018-09-05T12:56:43.097Z,43.50
2018-09-05T12:59:10.304Z,40.63
2018-09-05T13:01:37.516Z,42.15
2018-09-05T13:04:04.715Z,42.51
2018-09-05T13:06:31.847Z,43.15
2018-09-05T13:08:59.367Z,41.84
2018-09-05T13:11:26.780Z,41.99
2018-09-05T13:13:54.039Z,41.70
2018-09-05T13:16:21.316Z,40.29
2018-09-05T13:18:48.748Z,41.21
2018-09-05T13:21:15.977Z,40.87
2018-09-05T13:23:43.249Z,41.33
2018-09-05T13:26:10.668Z,40.96
2018-09-05T13:28:37.812Z,41.09
2018-09-05T13:31:05.051Z,39.56
2018-09-05T13:33:37.962Z,40.24
2018-09-05T13:36:10.973Z,41.11
2018-09-05T13:38:38.158Z,40.79
2018-09-05T13:41:05.300Z,42.42
2018-09-05T13:43:38.353Z,42.03
2018-09-05T13:46:05.558Z,42.34
2018-09-05T13:48:32.776Z,43.02
2018-09-05T13:51:00.073Z,43.92
2018-09-05T13:53:27.237Z,43.51
2018-09-05T13:56:01.672Z,43.97
2018-09-05T13:58:29.555Z,41.93
2018-09-05T14:00:56.663Z,44.83
2018-09-05T14:03:23.857Z,46.04
2018-09-05T14:05:51.005Z,45.18
2018-09-05T14:08:19.162Z,43.76
2018-09-05T14:10:46.394Z,44.04
2018-09-05T14:13:13.542Z,43.78
2018-09-05T14:15:40.665Z,44.27
2018-09-05T14:18:07.835Z,43.88
2018-09-05T14:20:34.999Z,44.02
2018-09-05T14:23:02.167Z,41.30
2018-09-05T14:25:29.333Z,42.62
2018-09-05T14:27:56.428Z,41.47
2018-09-05T14:30:23.538Z,41.65
2018-09-05T14:32:50.780Z,40.72
2018-09-05T14:35:18.016Z,41.17
2018-09-05T14:37:45.313Z,41.91
2018-09-05T14:40:12.496Z,42.26
2018-09-05T14:42:39.661Z,42.58
2018-09-05T14:45:06.820Z,44.36
2018-09-05T14:47:34.045Z,44.01
2018-09-05T14:50:01.197Z,43.28
2018-09-05T14:52:28.383Z,45.25
2018-09-05T14:54:55.561Z,45.28
2018-09-05T14:57:22.706Z,46.13
2018-09-05T14:59:50.477Z,45.46
2018-09-05T15:02:18.816Z,44.45
2018-09-05T15:04:46.323Z,45.86
2018-09-05T15:07:13.447Z,43.75
2018-09-05T15:09:40.621Z,46.38
2018-09-05T15:12:07.749Z,44.27
2018-09-05T15:14:34.870Z,45.15
2018-09-05T15:17:02.033Z,45.41
2018-09-05T15:19:29.201Z,43.62
2018-09-05T15:21:56.364Z,46.44
2018-09-05T15:24:23.525Z,44.98
2018-09-05T15:26:50.639Z,43.85
2018-09-05T15:29:17.756Z,44.58
2018-09-05T15:31:44.934Z,45.27
2018-09-05T15:34:12.057Z,45.33
2018-09-05T15:36:39.186Z,44.78
2018-09-05T15:39:08.082Z,45.16
2018-09-05T15:41:35.447Z,44.01
2018-09-05T15:44:02.572Z,44.57
2018-09-05T15:46:29.745Z,43.65
2018-09-05T15:48:56.964Z,45.40
2018-09-05T15:51:24.077Z,44.12
2018-09-05T15:53:51.283Z,45.47
2018-09-05T15:56:19.399Z,45.23
2018-09-05T15:58:46.507Z,45.42
2018-09-05T16:01:13.745Z,45.42
2018-09-05T16:03:40.918Z,45.91
2018-09-05T16:06:08.007Z,46.66
2018-09-05T16:08:35.372Z,47.74
2018-09-05T16:11:02.605Z,46.91
2018-09-05T16:13:29.831Z,47.32
2018-09-05T16:15:56.988Z,46.69
2018-09-05T16:18:24.116Z,47.90
2018-09-05T16:20:51.296Z,46.65
2018-09-05T16:23:18.484Z,48.48
2018-09-05T16:25:45.667Z,47.58
2018-09-05T16:28:12.765Z,48.40
2018-09-05T16:30:39.958Z,48.29
2018-09-05T16:33:07.073Z,48.07
2018-09-05T16:35:34.222Z,47.33
2018-09-05T16:38:01.455Z,50.29
2018-09-05T16:40:28.571Z,48.85
2018-09-05T16:42:55.688Z,48.90
2018-09-05T16:45:22.895Z,48.77
2018-09-05T16:47:50.060Z,50.23
2018-09-05T16:50:17.249Z,49.75
2018-09-05T16:52:44.411Z,50.68
2018-09-05T16:55:11.612Z,49.00
2018-09-05T16:57:38.728Z,49.67
2018-09-05T17:00:06.110Z,49.44
2018-09-05T17:02:33.313Z,50.90
2018-09-05T17:05:00.455Z,52.25
2018-09-05T17:07:27.634Z,51.45
2018-09-05T17:09:54.787Z,53.26
2018-09-05T17:12:21.892Z,54.57
2018-09-05T17:14:49.187Z,55.17
2018-09-05T17:17:16.300Z,55.31
2018-09-05T17:19:43.412Z,56.19
2018-09-05T17:22:10.632Z,57.30
2018-09-05T17:24:37.821Z,57.28
2018-09-05T17:27:05.049Z,58.08
2018-09-05T17:29:32.213Z,58.38
2018-09-05T17:31:59.325Z,58.15
2018-09-05T17:34:26.484Z,58.79
2018-09-05T17:36:53.651Z,59.90
2018-09-05T17:39:20.870Z,60.39
2018-09-05T17:41:47.980Z,60.87
2018-09-05T17:44:18.965Z,61.28
2018-09-05T17:46:46.076Z,61.69
2018-09-05T17:49:13.197Z,62.04
2018-09-05T17:51:40.456Z,62.18
2018-09-05T17:54:07.607Z,62.95
2018-09-05T17:56:34.896Z,63.38
2018-09-05T17:59:01.991Z,63.47
2018-09-05T18:01:39.921Z,63.52
2018-09-05T18:04:07.070Z,65.03
2018-09-05T18:06:34.253Z,65.29
2018-09-05T18:09:01.375Z,65.29
2018-09-05T18:11:28.612Z,65.69
2018-09-05T18:13:55.755Z,66.14
2018-09-05T18:16:22.963Z,66.22
2018-09-05T18:18:50.132Z,66.77
2018-09-05T18:21:17.264Z,67.04
2018-09-05T18:23:45.054Z,66.92
2018-09-05T18:26:12.230Z,66.77
2018-09-05T18:28:39.436Z,67.41
2018-09-05T18:31:06.568Z,68.32
2018-09-05T18:33:33.734Z,69.25
2018-09-05T18:36:01.520Z,69.03
2018-09-05T18:38:28.653Z,68.38
2018-09-05T18:40:55.933Z,68.95
2018-09-05T18:43:23.049Z,69.37
2018-09-05T18:45:50.167Z,69.19
2018-09-05T18:48:17.347Z,68.81
2018-09-05T18:50:44.686Z,70.00
2018-09-05T18:53:12.911Z,70.15
2018-09-05T18:55:41.511Z,70.55
2018-09-05T18:58:08.741Z,70.99
2018-09-05T19:00:36.335Z,70.97
2018-09-05T19:03:03.476Z,71.09
2018-09-05T19:05:30.712Z,71.05
2018-09-05T19:07:57.821Z,71.60
2018-09-05T19:10:24.979Z,71.02
2018-09-05T19:12:52.862Z,71.26
2018-09-05T19:15:20.595Z,71.37
2018-09-05T19:17:48.214Z,71.33
2018-09-05T19:20:15.436Z,68.84
2018-09-05T19:22:42.709Z,69.25
2018-09-05T19:25:09.903Z,69.83
2018-09-05T19:27:37.493Z,70.29
2018-09-05T19:30:05.568Z,70.16
2018-09-05T19:32:35.135Z,70.05
2018-09-05T19:35:02.303Z,70.25
2018-09-05T19:37:29.486Z,69.76
2018-09-05T19:39:56.703Z,70.46
2018-09-05T19:42:24.052Z,70.01
2018-09-05T19:44:51.132Z,70.70
2018-09-05T19:47:18.351Z,70.20
2018-09-05T19:49:45.693Z,69.48
2018-09-05T19:52:13.513Z,69.20
2018-09-05T19:54:40.834Z,69.63
2018-09-05T19:57:08.015Z,71.15
2018-09-05T19:59:35.130Z,69.68
2018-09-05T20:02:02.470Z,70.73
2018-09-05T20:04:30.384Z,70.45
2018-09-05T20:06:57.581Z,71.37
2018-09-05T20:09:25.853Z,70.81
2018-09-05T20:11:52.973Z,71.38
2018-09-05T20:14:20.211Z,71.64
2018-09-05T20:16:47.905Z,71.66
2018-09-05T20:19:15.361Z,71.96
2018-09-05T20:21:42.463Z,72.41
2018-09-05T20:24:09.681Z,71.46
2018-09-05T20:26:36.851Z,72.18
2018-09-05T20:29:03.963Z,72.37
2018-09-05T20:31:31.228Z,72.65
2018-09-05T20:33:58.397Z,73.32
2018-09-05T20:36:25.624Z,73.81
2018-09-05T20:38:52.797Z,73.84
2018-09-05T20:41:33.784Z,74.01
2018-09-05T20:44:00.996Z,73.95
2018-09-05T20:46:28.204Z,74.40
2018-09-05T20:48:55.384Z,74.64
2018-09-05T20:51:22.578Z,74.82
2018-09-05T20:53:49.772Z,75.22
2018-09-05T20:56:16.981Z,75.57
2018-09-05T20:58:44.227Z,75.77
2018-09-05T21:01:11.385Z,76.33
2018-09-05T21:03:38.535Z,76.30
2018-09-05T21:06:06.200Z,76.23
2018-09-05T21:08:33.399Z,77.29
2018-09-05T21:11:02.773Z,77.66
2018-09-05T21:13:36.651Z,77.58
2018-09-05T21:16:11.165Z,78.14
2018-09-05T21:18:38.572Z,78.57
2018-09-05T21:21:06.212Z,79.10
2018-09-05T21:23:33.404Z,79.39
2018-09-05T21:26:00.650Z,80.00
2018-09-05T21:28:27.851Z,79.70
2018-09-05T21:30:55.163Z,80.48
2018-09-05T21:33:22.400Z,80.99
2018-09-05T21:35:49.493Z,80.79
2018-09-05T21:38:16.616Z,81.26
2018-09-05T21:40:43.825Z,81.54
2018-09-05T21:43:11.067Z,82.06
2018-09-05T21:45:38.299Z,82.00
2018-09-05T21:48:05.489Z,81.94
2018-09-05T21:50:32.624Z,82.64
2018-09-05T21:52:59.871Z,83.02
2018-09-05T21:55:27.111Z,83.05
2018-09-05T21:57:54.316Z,83.21
2018-09-05T22:00:21.428Z,83.72
2018-09-05T22:02:48.766Z,83.40
2018-09-05T22:05:15.968Z,83.58
2018-09-05T22:07:43.185Z,84.44
2018-09-05T22:10:10.401Z,84.57
2018-09-05T22:12:37.500Z,84.54
2018-09-05T22:15:04.932Z,84.54
2018-09-05T22:17:32.144Z,84.92
2018-09-05T22:19:59.328Z,85.49
2018-09-05T22:22:26.483Z,85.80
2018-09-05T22:24:53.705Z,85.59
2018-09-05T22:27:20.831Z,85.36
2018-09-05T22:29:47.987Z,86.14
2018-09-05T22:32:15.241Z,86.55
2018-09-05T22:34:42.424Z,86.62
2018-09-05T22:37:09.535Z,87.27
2018-09-05T22:39:36.769Z,87.04
2018-09-05T22:42:04.016Z,87.38
2018-09-05T22:44:42.825Z,87.70
2018-09-05T22:47:21.556Z,87.84
2018-09-05T22:51:03.587Z,88.12
2018-09-05T22:54:47.275Z,88.70
2018-09-05T22:58:25.272Z,88.42
2018-09-05T23:01:04.292Z,88.66
2018-09-05T23:03:59.402Z,88.88
2018-09-05T23:06:38.883Z,89.51
2018-09-05T23:09:07.719Z,89.12
2018-09-05T23:11:59.660Z,89.73
2018-09-05T23:15:41.979Z,89.50
2018-09-05T23:20:18.559Z,89.98
2018-09-05T23:22:57.209Z,90.61
2018-09-05T23:25:24.396Z,90.07
2018-09-05T23:27:51.486Z,90.33
2018-09-05T23:30:18.786Z,90.44
2018-09-05T23:32:45.921Z,90.82
2018-09-05T23:35:13.076Z,90.39
2018-09-05T23:37:40.307Z,90.54
2018-09-05T23:40:07.508Z,91.25
2018-09-05T23:42:34.763Z,91.17
2018-09-05T23:45:01.946Z,90.65
2018-09-05T23:47:29.094Z,90.93
2018-09-05T23:49:56.260Z,91.48
2018-09-05T23:52:23.431Z,91.02
2018-09-05T23:54:50.649Z,91.32
2018-09-05T23:57:17.761Z,91.70
2018-09-05T23:59:44.913Z,91.93
